Time;durP1;ratioP1;P1;durP2;ratioP2;P2;SDS_P1;SDS_P2;PMS_P1;PMS_P2;Temp;Humidity;BMP_temperature;BMP_pressure;BME280_temperature;BME280_humidity;BME280_pressure;Samples;Min_cycle;Max_cycle;Signal;HPM_P1;HPM_P2
2023/05/22 00:04:12;;;;;;;9.8;3.5;;;;;;;-132.3;0;77560;;;;
2023/05/22 00:15:10;;;;;;;9.8;3.5;;;;;;;-132.3;0;77570;;;;
2023/05/22 00:26:09;;;;;;;9.8;3.5;;;;;;;-132.3;0;77570;;;;
2023/05/22 00:37:09;;;;;;;9.4;4.1;;;;;;;-132.3;0;77580;;;;
2023/05/22 00:47:09;;;;;;;9.4;4.1;;;;;;;-132.3;0;77580;;;;
2023/05/22 00:57:09;;;;;;;9.4;4.1;;;;;;;-132.3;0;77590;;;;
2023/05/22 01:07:09;;;;;;;9;3.8;;;;;;;-132.3;0;77600;;;;
2023/05/22 01:18:09;;;;;;;9;3.8;;;;;;;-132.3;0;77600;;;;
2023/05/22 01:28:09;;;;;;;9;3.8;;;;;;;-132.3;0;77620;;;;
2023/05/22 01:39:09;;;;;;;7.2;4.2;;;;;;;-132.3;0;77640;;;;
2023/05/22 01:49:09;;;;;;;7.2;4.2;;;;;;;-132.3;0;77660;;;;
2023/05/22 01:59:10;;;;;;;7.2;4.2;;;;;;;-132.3;0;77680;;;;
2023/05/22 02:10:10;;;;;;;7.4;4.5;;;;;;;-132.3;0;77710;;;;
2023/05/22 02:20:13;;;;;;;7.4;4.5;;;;;;;-132.3;0;77730;;;;
2023/05/22 02:31:10;;;;;;;7.4;4.5;;;;;;;-132.3;0;77730;;;;
2023/05/22 02:42:10;;;;;;;7;4.1;;;;;;;-132.3;0;77720;;;;
2023/05/22 02:52:10;;;;;;;7;4.1;;;;;;;-132.3;0;77730;;;;
2023/05/22 03:02:11;;;;;;;7;4.1;;;;;;;-132.3;0;77730;;;;
2023/05/22 03:13:09;;;;;;;7.4;3.3;;;;;;;-132.3;0;77730;;;;
2023/05/22 03:23:10;;;;;;;7.4;3.3;;;;;;;-132.3;0;77730;;;;
2023/05/22 03:33:10;;;;;;;7.4;3.3;;;;;;;-132.3;0;77730;;;;
2023/05/22 03:44:10;;;;;;;5.1;3.2;;;;;;;-132.3;0;77710;;;;
2023/05/22 03:55:10;;;;;;;5.1;3.2;;;;;;;-132.3;0;77680;;;;
2023/05/22 04:05:09;;;;;;;7.6;3.9;;;;;;;-132.3;0;77660;;;;
2023/05/22 04:15:10;;;;;;;7.6;3.9;;;;;;;-132.3;0;77620;;;;
2023/05/22 04:26:10;;;;;;;7.6;3.9;;;;;;;-132.3;0;77580;;;;
2023/05/22 04:37:10;;;;;;;7.1;3.9;;;;;;;-132.3;0;77530;;;;
2023/05/22 04:47:10;;;;;;;7.1;3.9;;;;;;;-132.3;0;77480;;;;
2023/05/22 04:58:10;;;;;;;7.1;3.9;;;;;;;-132.3;0;77410;;;;
2023/05/22 05:09:10;;;;;;;8.5;4.8;;;;;;;-132.3;0;77350;;;;
2023/05/22 05:20:13;;;;;;;8.5;4.8;;;;;;;-132.3;0;77280;;;;
2023/05/22 05:30:10;;;;;;;8.5;4.8;;;;;;;-132.3;0;77240;;;;
2023/05/22 05:41:10;;;;;;;9.1;5.7;;;;;;;-132.3;0;77190;;;;
2023/05/22 05:51:10;;;;;;;9.1;5.7;;;;;;;-132.3;0;77140;;;;
2023/05/22 06:02:10;;;;;;;9.1;5.7;;;;;;;-132.3;0;77070;;;;
2023/05/22 06:12:11;;;;;;;10.1;6.3;;;;;;;-132.3;0;77020;;;;
2023/05/22 06:23:10;;;;;;;10.1;6.3;;;;;;;-132.3;0;76970;;;;
2023/05/22 06:34:10;;;;;;;7.8;5;;;;;;;-132.3;0;76910;;;;
2023/05/22 06:45:10;;;;;;;7.8;5;;;;;;;-132.3;0;76820;;;;
2023/05/22 06:55:10;;;;;;;7.8;5;;;;;;;-132.3;0;76780;;;;
2023/05/22 07:05:10;;;;;;;8.4;4.4;;;;;;;-132.3;0;76720;;;;
2023/05/22 07:16:10;;;;;;;8.4;4.4;;;;;;;-132.3;0;76670;;;;
2023/05/22 07:27:11;;;;;;;8.4;4.4;;;;;;;-132.3;0;76570;;;;
2023/05/22 07:37:10;;;;;;;8.4;4.4;;;;;;;-132.3;0;76510;;;;
2023/05/22 07:47:10;;;;;;;8.4;4.4;;;;;;;-132.3;0;76500;;;;
2023/05/22 07:58:10;;;;;;;8.4;4.4;;;;;;;-132.3;0;76460;;;;
2023/05/22 08:09:10;;;;;;;10;4.3;;;;;;;-132.3;0;76460;;;;
2023/05/22 08:19:10;;;;;;;10;4.3;;;;;;;-132.3;0;76420;;;;
2023/05/22 08:29:10;;;;;;;10;4.3;;;;;;;-132.3;0;76410;;;;
2023/05/22 08:40:10;;;;;;;9;3.9;;;;;;;-132.3;0;76360;;;;
2023/05/22 08:50:10;;;;;;;9;3.9;;;;;;;-132.3;0;76320;;;;
2023/05/22 09:01:10;;;;;;;9;3.9;;;;;;;-132.3;0;76270;;;;
2023/05/22 09:11:11;;;;;;;5.3;3.1;;;;;;;-132.3;0;76260;;;;
2023/05/22 09:22:10;;;;;;;5.3;3.1;;;;;;;-132.3;0;76230;;;;
2023/05/22 09:33:11;;;;;;;7;3.4;;;;;;;-132.3;0;76210;;;;
2023/05/22 09:43:10;;;;;;;7;3.4;;;;;;;-132.3;0;76170;;;;
2023/05/22 09:53:10;;;;;;;7;3.4;;;;;;;-132.3;0;76190;;;;
2023/05/22 10:04:10;;;;;;;6.9;3;;;;;;;-132.3;0;76180;;;;
2023/05/22 10:14:10;;;;;;;6.9;3;;;;;;;-132.3;0;76210;;;;
2023/05/22 10:24:10;;;;;;;6.9;3;;;;;;;-132.3;0;76250;;;;
2023/05/22 10:35:10;;;;;;;5.8;3.5;;;;;;;-132.3;0;76190;;;;
2023/05/22 10:46:10;;;;;;;5.8;3.5;;;;;;;-132.3;0;76150;;;;
2023/05/22 10:56:10;;;;;;;5.8;3.5;;;;;;;-132.3;0;76120;;;;
2023/05/22 11:07:12;;;;;;;6.8;3.3;;;;;;;-132.3;0;76090;;;;
2023/05/22 11:18:10;;;;;;;6.8;3.3;;;;;;;-132.3;0;76070;;;;
2023/05/22 11:29:10;;;;;;;6.8;3.3;;;;;;;-132.3;0;76050;;;;
2023/05/22 11:40:10;;;;;;;6.3;3;;;;;;;-132.3;0;76020;;;;
2023/05/22 11:50:10;;;;;;;6.3;3;;;;;;;-132.3;0;76020;;;;
2023/05/22 12:01:10;;;;;;;6.3;3;;;;;;;-132.3;0;75980;;;;
2023/05/22 12:11:10;;;;;;;9.7;3;;;;;;;-132.3;0;75950;;;;
2023/05/22 12:21:10;;;;;;;9.7;3;;;;;;;-132.3;0;75920;;;;
2023/05/22 12:32:10;;;;;;;9.7;3;;;;;;;-132.3;0;75930;;;;
2023/05/22 12:42:10;;;;;;;8.6;3.3;;;;;;;-132.3;0;75890;;;;
2023/05/22 12:53:10;;;;;;;8.6;3.3;;;;;;;-132.3;0;75880;;;;
2023/05/22 13:03:11;;;;;;;8.6;3.3;;;;;;;-132.3;0;75860;;;;
2023/05/22 13:13:10;;;;;;;6.7;3.7;;;;;;;-132.3;0;75860;;;;
2023/05/22 13:23:10;;;;;;;6.7;3.7;;;;;;;-132.3;0;75830;;;;
2023/05/22 13:34:10;;;;;;;6.8;3.5;;;;;;;-132.3;0;75790;;;;
2023/05/22 13:44:10;;;;;;;6.8;3.5;;;;;;;-132.3;0;75760;;;;
2023/05/22 13:54:10;;;;;;;6.8;3.5;;;;;;;-132.3;0;75700;;;;
2023/05/22 14:05:10;;;;;;;6.7;3.7;;;;;;;-132.3;0;75700;;;;
2023/05/22 14:15:10;;;;;;;6.7;3.7;;;;;;;-132.3;0;75700;;;;
2023/05/22 14:26:10;;;;;;;6.7;3.7;;;;;;;-132.3;0;75740;;;;
2023/05/22 14:36:10;;;;;;;6.7;3.9;;;;;;;-132.3;0;75720;;;;
2023/05/22 14:47:10;;;;;;;6.7;3.9;;;;;;;-132.3;0;75720;;;;
2023/05/22 14:58:10;;;;;;;6.7;3.9;;;;;;;-132.3;0;75710;;;;
2023/05/22 15:08:10;;;;;;;7.8;4;;;;;;;-132.3;0;75510;;;;
2023/05/22 15:19:10;;;;;;;7.8;4;;;;;;;-132.3;0;75240;;;;
2023/05/22 15:30:10;;;;;;;7.8;4;;;;;;;-132.3;0;75270;;;;
2023/05/22 15:40:14;;;;;;;8.1;3.8;;;;;;;-132.3;0;75200;;;;
2023/05/22 15:50:10;;;;;;;8.1;3.8;;;;;;;-132.3;0;75090;;;;
2023/05/22 16:01:11;;;;;;;8.1;3.8;;;;;;;-132.3;0;75130;;;;
2023/05/22 16:12:10;;;;;;;7.1;3.4;;;;;;;-132.3;0;75390;;;;
2023/05/22 16:23:10;;;;;;;7.1;3.4;;;;;;;-132.3;0;75470;;;;
2023/05/22 16:34:10;;;;;;;7.4;3.5;;;;;;;-132.3;0;75620;;;;
2023/05/22 16:44:10;;;;;;;7.4;3.5;;;;;;;-132.3;0;75660;;;;
2023/05/22 16:55:10;;;;;;;7.4;3.5;;;;;;;-132.3;0;75710;;;;
2023/05/22 17:05:10;;;;;;;8.1;3.8;;;;;;;-132.3;0;75790;;;;
2023/05/22 17:15:10;;;;;;;8.1;3.8;;;;;;;-132.3;0;75890;;;;
2023/05/22 17:25:10;;;;;;;8.1;3.8;;;;;;;-132.3;0;75990;;;;
2023/05/22 17:36:10;;;;;;;8.3;4.1;;;;;;;-132.3;0;76020;;;;
2023/05/22 17:47:12;;;;;;;8.3;4.1;;;;;;;-132.3;0;75980;;;;
2023/05/22 17:57:10;;;;;;;8.3;4.1;;;;;;;-132.3;0;76080;;;;
2023/05/22 18:08:10;;;;;;;25.6;12.9;;;;;;;-132.3;0;76200;;;;
2023/05/22 18:18:11;;;;;;;25.6;12.9;;;;;;;-132.3;0;76280;;;;
2023/05/22 18:29:10;;;;;;;25.6;12.9;;;;;;;-132.3;0;76350;;;;
2023/05/22 18:40:10;;;;;;;10.7;5.3;;;;;;;-132.3;0;76420;;;;
2023/05/22 18:51:10;;;;;;;10.7;5.3;;;;;;;-132.3;0;76480;;;;
2023/05/22 19:01:10;;;;;;;10.7;5.3;;;;;;;-132.3;0;76530;;;;
2023/05/22 19:12:10;;;;;;;12.3;6.3;;;;;;;-132.3;0;76570;;;;
2023/05/22 19:23:12;;;;;;;12.3;6.3;;;;;;;-132.3;0;76620;;;;
2023/05/22 19:33:10;;;;;;;12.3;6.3;;;;;;;-132.3;0;76660;;;;
2023/05/22 19:43:10;;;;;;;10.8;7.1;;;;;;;-132.3;0;76690;;;;
2023/05/22 19:54:10;;;;;;;10.8;7.1;;;;;;;-132.3;0;76720;;;;
2023/05/22 20:05:11;;;;;;;11.4;7.3;;;;;;;-132.3;0;76760;;;;
2023/05/22 20:16:11;;;;;;;11.4;7.3;;;;;;;-132.3;0;76780;;;;
2023/05/22 20:26:10;;;;;;;11.4;7.3;;;;;;;-132.3;0;76790;;;;
2023/05/22 20:37:12;;;;;;;13.3;7.9;;;;;;;-132.3;0;76810;;;;
2023/05/22 20:48:11;;;;;;;13.3;7.9;;;;;;;-132.3;0;76840;;;;
2023/05/22 20:58:10;;;;;;;13.3;7.9;;;;;;;-132.3;0;76850;;;;
2023/05/22 21:08:10;;;;;;;10.9;7.6;;;;;;;-132.3;0;76890;;;;
2023/05/22 21:19:10;;;;;;;10.9;7.6;;;;;;;-132.3;0;76910;;;;
2023/05/22 21:30:10;;;;;;;10.9;7.6;;;;;;;-132.3;0;76940;;;;
2023/05/22 21:41:10;;;;;;;9.2;5.5;;;;;;;-132.3;0;76960;;;;
2023/05/22 21:51:10;;;;;;;9.2;5.5;;;;;;;-132.3;0;76980;;;;
2023/05/22 22:02:10;;;;;;;9.2;5.5;;;;;;;-132.3;0;77020;;;;
2023/05/22 22:13:10;;;;;;;8.4;5.9;;;;;;;-132.3;0;77040;;;;
2023/05/22 22:24:10;;;;;;;8.4;5.9;;;;;;;-132.3;0;77080;;;;
2023/05/22 22:34:10;;;;;;;12.1;4.9;;;;;;;-132.3;0;77090;;;;
2023/05/22 22:45:10;;;;;;;12.1;4.9;;;;;;;-132.3;0;77110;;;;
2023/05/22 22:55:10;;;;;;;12.1;4.9;;;;;;;-132.3;0;77130;;;;
2023/05/22 23:06:10;;;;;;;11;6.3;;;;;;;-132.3;0;77130;;;;
2023/05/22 23:17:10;;;;;;;11;6.3;;;;;;;-132.3;0;77130;;;;
2023/05/22 23:28:10;;;;;;;11;6.3;;;;;;;-132.3;0;77130;;;;
2023/05/22 23:38:10;;;;;;;12.6;6.5;;;;;;;-132.3;0;77130;;;;
2023/05/22 23:49:10;;;;;;;12.6;6.5;;;;;;;-132.3;0;77150;;;;
2023/05/22 23:59:10;;;;;;;12.6;6.5;;;;;;;-132.3;0;77160;;;;
